sensor_id;sensor_type;location;lat;lon;timestamp;pressure;altitude;pressure_sealevel;temperature;humidity
39411;BME280;26579;43.238;23.124;2023-09-19T00:01:49;97274.88;;;18.42;71.27
39411;BME280;26579;43.238;23.124;2023-09-19T00:04:15;97265.63;;;18.38;71.81
39411;BME280;26579;43.238;23.124;2023-09-19T00:06:40;97272.41;;;18.32;71.64
39411;BME280;26579;43.238;23.124;2023-09-19T00:09:06;97266.31;;;18.23;71.55
39411;BME280;26579;43.238;23.124;2023-09-19T00:11:32;97275.53;;;18.27;71.65
39411;BME280;26579;43.238;23.124;2023-09-19T00:13:57;97276.84;;;18.23;71.85
39411;BME280;26579;43.238;23.124;2023-09-19T00:16:23;97268.78;;;18.25;71.72
39411;BME280;26579;43.238;23.124;2023-09-19T00:18:49;97273.72;;;18.28;71.87
39411;BME280;26579;43.238;23.124;2023-09-19T00:21:14;97271.28;;;18.18;71.99
39411;BME280;26579;43.238;23.124;2023-09-19T00:23:40;97266.16;;;18.17;72.16
39411;BME280;26579;43.238;23.124;2023-09-19T00:26:06;97264.81;;;18.21;71.71
39411;BME280;26579;43.238;23.124;2023-09-19T00:28:32;97259.72;;;18.19;71.70
39411;BME280;26579;43.238;23.124;2023-09-19T00:30:57;97251.69;;;18.13;71.74
39411;BME280;26579;43.238;23.124;2023-09-19T00:33:23;97256.91;;;18.29;71.21
39411;BME280;26579;43.238;23.124;2023-09-19T00:35:50;97245.56;;;18.20;71.21
39411;BME280;26579;43.238;23.124;2023-09-19T00:38:16;97257.25;;;18.26;71.04
39411;BME280;26579;43.238;23.124;2023-09-19T00:40:45;97258.59;;;18.30;70.68
39411;BME280;26579;43.238;23.124;2023-09-19T00:43:11;97249.34;;;18.26;70.60
39411;BME280;26579;43.238;23.124;2023-09-19T00:45:38;97258.91;;;18.27;70.94
39411;BME280;26579;43.238;23.124;2023-09-19T00:48:04;97252.66;;;18.28;70.85
39411;BME280;26579;43.238;23.124;2023-09-19T00:50:30;97251.81;;;18.27;71.08
39411;BME280;26579;43.238;23.124;2023-09-19T00:52:56;97259.56;;;18.29;70.64
39411;BME280;26579;43.238;23.124;2023-09-19T00:55:23;97253.16;;;18.15;70.98
39411;BME280;26579;43.238;23.124;2023-09-19T00:57:49;97248.53;;;18.17;71.25
39411;BME280;26579;43.238;23.124;2023-09-19T01:00:16;97253.31;;;18.22;71.19
39411;BME280;26579;43.238;23.124;2023-09-19T01:02:42;97258.44;;;18.15;71.15
39411;BME280;26579;43.238;23.124;2023-09-19T01:05:09;97260.22;;;18.15;71.56
39411;BME280;26579;43.238;23.124;2023-09-19T01:07:35;97260.06;;;18.16;71.49
39411;BME280;26579;43.238;23.124;2023-09-19T01:10:06;97265.81;;;18.20;71.04
39411;BME280;26579;43.238;23.124;2023-09-19T01:17:54;97260.53;;;18.12;71.32
39411;BME280;26579;43.238;23.124;2023-09-19T01:20:29;97259.56;;;18.04;71.61
39411;BME280;26579;43.238;23.124;2023-09-19T01:23:17;97265.00;;;18.11;71.51
39411;BME280;26579;43.238;23.124;2023-09-19T01:26:05;97265.19;;;18.09;71.70
39411;BME280;26579;43.238;23.124;2023-09-19T01:31:33;97264.34;;;18.09;71.88
39411;BME280;26579;43.238;23.124;2023-09-19T01:34:01;97250.50;;;17.99;71.87
39411;BME280;26579;43.238;23.124;2023-09-19T01:36:32;97267.13;;;17.99;72.16
39411;BME280;26579;43.238;23.124;2023-09-19T01:38:59;97266.16;;;18.08;71.56
39411;BME280;26579;43.238;23.124;2023-09-19T01:41:56;97262.69;;;18.00;72.24
39411;BME280;26579;43.238;23.124;2023-09-19T01:44:31;97262.88;;;17.98;72.33
39411;BME280;26579;43.238;23.124;2023-09-19T01:47:13;97258.09;;;18.02;71.93
39411;BME280;26579;43.238;23.124;2023-09-19T01:49:54;97260.72;;;18.02;72.11
39411;BME280;26579;43.238;23.124;2023-09-19T01:52:21;97243.63;;;17.98;72.15
39411;BME280;26579;43.238;23.124;2023-09-19T01:54:56;97248.88;;;17.98;72.30
39411;BME280;26579;43.238;23.124;2023-09-19T01:57:42;97253.63;;;18.02;72.00
39411;BME280;26579;43.238;23.124;2023-09-19T02:00:12;97249.50;;;18.00;71.97
39411;BME280;26579;43.238;23.124;2023-09-19T02:02:45;97252.47;;;17.97;72.10
39411;BME280;26579;43.238;23.124;2023-09-19T02:05:12;97245.41;;;17.97;71.99
39411;BME280;26579;43.238;23.124;2023-09-19T02:07:38;97256.94;;;17.96;72.38
39411;BME280;26579;43.238;23.124;2023-09-19T02:10:05;97261.19;;;17.97;72.44
39411;BME280;26579;43.238;23.124;2023-09-19T02:12:32;97257.94;;;17.95;72.39
39411;BME280;26579;43.238;23.124;2023-09-19T02:15:02;97254.16;;;17.98;72.65
39411;BME280;26579;43.238;23.124;2023-09-19T02:17:29;97259.72;;;17.95;72.77
39411;BME280;26579;43.238;23.124;2023-09-19T02:19:55;97259.72;;;17.95;72.89
39411;BME280;26579;43.238;23.124;2023-09-19T02:22:21;97244.44;;;17.98;72.47
39411;BME280;26579;43.238;23.124;2023-09-19T02:24:47;97256.28;;;18.02;72.29
39411;BME280;26579;43.238;23.124;2023-09-19T02:27:14;97249.69;;;17.90;72.72
39411;BME280;26579;43.238;23.124;2023-09-19T02:29:39;97239.47;;;17.87;72.97
39411;BME280;26579;43.238;23.124;2023-09-19T02:32:05;97246.38;;;17.88;73.33
39411;BME280;26579;43.238;23.124;2023-09-19T02:34:31;97255.63;;;17.92;72.95
39411;BME280;26579;43.238;23.124;2023-09-19T02:36:56;97250.16;;;17.85;73.27
39411;BME280;26579;43.238;23.124;2023-09-19T02:39:22;97240.63;;;17.84;73.03
39411;BME280;26579;43.238;23.124;2023-09-19T02:41:48;97250.16;;;17.85;73.38
39411;BME280;26579;43.238;23.124;2023-09-19T02:44:14;97248.53;;;17.84;73.53
39411;BME280;26579;43.238;23.124;2023-09-19T02:46:40;97235.19;;;17.78;73.82
39411;BME280;26579;43.238;23.124;2023-09-19T02:49:05;97245.75;;;17.78;73.67
39411;BME280;26579;43.238;23.124;2023-09-19T02:51:31;97239.09;;;17.74;73.96
39411;BME280;26579;43.238;23.124;2023-09-19T02:53:58;97240.09;;;17.64;74.27
39411;BME280;26579;43.238;23.124;2023-09-19T02:56:24;97245.34;;;17.64;74.05
39411;BME280;26579;43.238;23.124;2023-09-19T02:58:50;97228.72;;;17.56;74.76
39411;BME280;26579;43.238;23.124;2023-09-19T03:01:16;97224.44;;;17.55;74.36
39411;BME280;26579;43.238;23.124;2023-09-19T03:03:42;97238.09;;;17.58;74.46
39411;BME280;26579;43.238;23.124;2023-09-19T03:06:08;97235.31;;;17.60;74.25
39411;BME280;26579;43.238;23.124;2023-09-19T03:08:34;97242.72;;;17.64;73.66
39411;BME280;26579;43.238;23.124;2023-09-19T03:10:59;97230.53;;;17.55;73.92
39411;BME280;26579;43.238;23.124;2023-09-19T03:13:25;97242.56;;;17.66;73.22
39411;BME280;26579;43.238;23.124;2023-09-19T03:15:54;97239.09;;;17.65;73.57
39411;BME280;26579;43.238;23.124;2023-09-19T03:18:24;97248.78;;;17.65;73.80
39411;BME280;26579;43.238;23.124;2023-09-19T03:20:54;97240.75;;;17.67;73.60
39411;BME280;26579;43.238;23.124;2023-09-19T03:23:22;97233.66;;;17.67;73.60
39411;BME280;26579;43.238;23.124;2023-09-19T03:25:48;97233.81;;;17.65;73.19
39411;BME280;26579;43.238;23.124;2023-09-19T03:28:13;97242.91;;;17.63;73.90
39411;BME280;26579;43.238;23.124;2023-09-19T03:30:39;97244.69;;;17.62;73.77
39411;BME280;26579;43.238;23.124;2023-09-19T03:33:05;97240.09;;;17.64;74.06
39411;BME280;26579;43.238;23.124;2023-09-19T03:35:31;97244.06;;;17.69;73.79
39411;BME280;26579;43.238;23.124;2023-09-19T03:37:57;97241.91;;;17.72;74.11
39411;BME280;26579;43.238;23.124;2023-09-19T03:40:23;97252.25;;;17.74;74.30
39411;BME280;26579;43.238;23.124;2023-09-19T03:42:49;97254.28;;;17.80;73.43
39411;BME280;26579;43.238;23.124;2023-09-19T03:45:15;97244.03;;;17.77;73.10
39411;BME280;26579;43.238;23.124;2023-09-19T03:47:46;97243.75;;;17.80;73.37
39411;BME280;26579;43.238;23.124;2023-09-19T03:50:12;97243.13;;;17.86;73.53
39411;BME280;26579;43.238;23.124;2023-09-19T03:52:37;97259.88;;;17.85;73.37
39411;BME280;26579;43.238;23.124;2023-09-19T03:55:03;97241.09;;;17.72;73.75
39411;BME280;26579;43.238;23.124;2023-09-19T03:57:29;97242.09;;;17.79;74.20
39411;BME280;26579;43.238;23.124;2023-09-19T03:59:55;97237.13;;;17.76;74.03
39411;BME280;26579;43.238;23.124;2023-09-19T04:02:21;97244.75;;;17.79;73.94
39411;BME280;26579;43.238;23.124;2023-09-19T04:04:51;97243.22;;;17.76;73.96
39411;BME280;26579;43.238;23.124;2023-09-19T04:07:18;97249.19;;;17.78;74.18
39411;BME280;26579;43.238;23.124;2023-09-19T04:09:43;97249.31;;;17.77;74.15
39411;BME280;26579;43.238;23.124;2023-09-19T04:12:09;97255.13;;;17.80;74.23
39411;BME280;26579;43.238;23.124;2023-09-19T04:14:35;97254.94;;;17.82;74.07
39411;BME280;26579;43.238;23.124;2023-09-19T04:17:00;97252.78;;;17.77;74.61
39411;BME280;26579;43.238;23.124;2023-09-19T04:19:26;97251.31;;;17.75;74.61
39411;BME280;26579;43.238;23.124;2023-09-19T04:21:52;97245.38;;;17.73;74.91
39411;BME280;26579;43.238;23.124;2023-09-19T04:24:17;97263.19;;;17.87;74.56
39411;BME280;26579;43.238;23.124;2023-09-19T04:26:43;97264.19;;;17.86;74.73
39411;BME280;26579;43.238;23.124;2023-09-19T04:29:09;97253.31;;;17.81;74.67
39411;BME280;26579;43.238;23.124;2023-09-19T04:31:34;97254.28;;;17.88;74.40
39411;BME280;26579;43.238;23.124;2023-09-19T04:34:00;97254.44;;;17.95;74.09
39411;BME280;26579;43.238;23.124;2023-09-19T04:36:26;97258.41;;;17.99;73.80
39411;BME280;26579;43.238;23.124;2023-09-19T04:38:51;97247.06;;;17.90;74.10
39411;BME280;26579;43.238;23.124;2023-09-19T04:41:17;97261.06;;;17.99;74.07
39411;BME280;26579;43.238;23.124;2023-09-19T04:43:43;97249.38;;;18.01;74.13
39411;BME280;26579;43.238;23.124;2023-09-19T04:46:08;97250.84;;;18.04;74.16
39411;BME280;26579;43.238;23.124;2023-09-19T04:48:34;97242.63;;;18.07;74.12
39411;BME280;26579;43.238;23.124;2023-09-19T04:51:00;97237.16;;;18.17;73.70
39411;BME280;26579;43.238;23.124;2023-09-19T04:53:26;97236.50;;;18.15;73.74
39411;BME280;26579;43.238;23.124;2023-09-19T04:55:52;97232.09;;;18.15;74.12
39411;BME280;26579;43.238;23.124;2023-09-19T04:58:17;97238.47;;;18.21;73.86
39411;BME280;26579;43.238;23.124;2023-09-19T05:00:43;97235.69;;;18.22;73.87
39411;BME280;26579;43.238;23.124;2023-09-19T05:03:09;97234.53;;;18.25;74.00
39411;BME280;26579;43.238;23.124;2023-09-19T05:05:36;97222.50;;;18.22;74.00
39411;BME280;26579;43.238;23.124;2023-09-19T05:08:01;97220.88;;;18.21;73.71
39411;BME280;26579;43.238;23.124;2023-09-19T05:10:27;97215.41;;;18.23;74.29
39411;BME280;26579;43.238;23.124;2023-09-19T05:12:53;97225.28;;;18.29;74.08
39411;BME280;26579;43.238;23.124;2023-09-19T05:15:19;97218.38;;;18.44;73.22
39411;BME280;26579;43.238;23.124;2023-09-19T05:17:52;97215.88;;;18.51;73.40
39411;BME280;26579;43.238;23.124;2023-09-19T05:20:18;97222.91;;;18.59;73.44
39411;BME280;26579;43.238;23.124;2023-09-19T05:22:43;97205.13;;;18.52;73.58
39411;BME280;26579;43.238;23.124;2023-09-19T05:25:10;97208.56;;;18.61;73.41
39411;BME280;26579;43.238;23.124;2023-09-19T05:27:36;97198.81;;;18.70;72.97
39411;BME280;26579;43.238;23.124;2023-09-19T05:30:02;97194.72;;;18.67;73.46
39411;BME280;26579;43.238;23.124;2023-09-19T05:32:28;97200.50;;;18.71;73.81
39411;BME280;26579;43.238;23.124;2023-09-19T05:34:54;97207.75;;;18.77;73.98
39411;BME280;26579;43.238;23.124;2023-09-19T05:37:20;97199.97;;;18.84;73.73
39411;BME280;26579;43.238;23.124;2023-09-19T05:39:45;97209.00;;;18.89;73.71
39411;BME280;26579;43.238;23.124;2023-09-19T05:42:11;97196.13;;;18.94;73.10
39411;BME280;26579;43.238;23.124;2023-09-19T05:44:38;97193.47;;;19.03;73.19
39411;BME280;26579;43.238;23.124;2023-09-19T05:47:04;97199.19;;;19.14;73.21
39411;BME280;26579;43.238;23.124;2023-09-19T05:49:29;97195.50;;;19.23;72.58
39411;BME280;26579;43.238;23.124;2023-09-19T05:51:55;97186.06;;;19.29;72.42
39411;BME280;26579;43.238;23.124;2023-09-19T05:54:21;97193.00;;;19.53;73.07
39411;BME280;26579;43.238;23.124;2023-09-19T05:56:46;97192.00;;;19.77;73.00
39411;BME280;26579;43.238;23.124;2023-09-19T05:59:12;97175.59;;;19.90;71.71
39411;BME280;26579;43.238;23.124;2023-09-19T06:01:38;97172.84;;;19.98;70.90
39411;BME280;26579;43.238;23.124;2023-09-19T06:04:03;97190.03;;;20.17;70.44
39411;BME280;26579;43.238;23.124;2023-09-19T06:06:29;97188.94;;;20.26;68.94
39411;BME280;26579;43.238;23.124;2023-09-19T06:08:55;97180.56;;;20.23;68.71
39411;BME280;26579;43.238;23.124;2023-09-19T06:11:20;97181.28;;;20.31;68.67
39411;BME280;26579;43.238;23.124;2023-09-19T06:13:46;97196.75;;;20.57;67.59
39411;BME280;26579;43.238;23.124;2023-09-19T06:16:12;97188.81;;;20.72;66.91
39411;BME280;26579;43.238;23.124;2023-09-19T06:18:37;97189.00;;;20.86;65.83
39411;BME280;26579;43.238;23.124;2023-09-19T06:21:03;97189.97;;;20.99;64.87
39411;BME280;26579;43.238;23.124;2023-09-19T06:23:29;97182.66;;;21.01;63.70
39411;BME280;26579;43.238;23.124;2023-09-19T06:25:54;97185.66;;;21.13;63.19
39411;BME280;26579;43.238;23.124;2023-09-19T06:28:20;97185.97;;;21.25;63.49
39411;BME280;26579;43.238;23.124;2023-09-19T06:30:46;97186.25;;;21.30;64.13
39411;BME280;26579;43.238;23.124;2023-09-19T06:33:11;97181.38;;;21.34;64.62
39411;BME280;26579;43.238;23.124;2023-09-19T06:35:37;97178.84;;;21.25;62.68
39411;BME280;26579;43.238;23.124;2023-09-19T06:38:03;97179.75;;;21.33;62.65
39411;BME280;26579;43.238;23.124;2023-09-19T06:40:29;97171.56;;;21.28;63.54
39411;BME280;26579;43.238;23.124;2023-09-19T06:42:57;97178.47;;;21.29;64.40
39411;BME280;26579;43.238;23.124;2023-09-19T06:45:23;97166.09;;;21.14;65.20
39411;BME280;26579;43.238;23.124;2023-09-19T06:47:50;97190.56;;;21.16;65.81
39411;BME280;26579;43.238;23.124;2023-09-19T06:50:17;97192.03;;;21.19;66.84
39411;BME280;26579;43.238;23.124;2023-09-19T06:52:43;97195.56;;;21.26;67.55
39411;BME280;26579;43.238;23.124;2023-09-19T06:55:09;97187.75;;;21.18;68.03
39411;BME280;26579;43.238;23.124;2023-09-19T06:57:35;97196.78;;;21.23;68.32
39411;BME280;26579;43.238;23.124;2023-09-19T07:00:01;97200.44;;;21.08;67.58
39411;BME280;26579;43.238;23.124;2023-09-19T07:02:27;97203.28;;;21.06;67.14
39411;BME280;26579;43.238;23.124;2023-09-19T07:04:53;97205.09;;;21.06;67.17
39411;BME280;26579;43.238;23.124;2023-09-19T07:07:18;97206.19;;;21.11;65.79
39411;BME280;26579;43.238;23.124;2023-09-19T07:09:44;97209.00;;;21.24;65.71
39411;BME280;26579;43.238;23.124;2023-09-19T07:12:10;97205.97;;;21.28;64.35
39411;BME280;26579;43.238;23.124;2023-09-19T07:14:35;97203.78;;;21.31;64.26
39411;BME280;26579;43.238;23.124;2023-09-19T07:17:01;97200.13;;;21.32;63.21
39411;BME280;26579;43.238;23.124;2023-09-19T07:19:27;97202.13;;;21.30;63.81
39411;BME280;26579;43.238;23.124;2023-09-19T07:21:52;97201.84;;;21.40;63.36
39411;BME280;26579;43.238;23.124;2023-09-19T07:24:18;97193.97;;;21.46;62.18
39411;BME280;26579;43.238;23.124;2023-09-19T07:26:45;97202.72;;;21.62;62.13
39411;BME280;26579;43.238;23.124;2023-09-19T07:29:11;97199.56;;;21.73;60.65
39411;BME280;26579;43.238;23.124;2023-09-19T07:31:36;97204.84;;;21.95;58.69
39411;BME280;26579;43.238;23.124;2023-09-19T07:34:02;97203.16;;;22.15;58.37
39411;BME280;26579;43.238;23.124;2023-09-19T07:36:28;97194.69;;;22.20;58.63
39411;BME280;26579;43.238;23.124;2023-09-19T07:38:53;97194.38;;;22.36;58.18
39411;BME280;26579;43.238;23.124;2023-09-19T07:41:19;97183.25;;;22.54;57.82
39411;BME280;26579;43.238;23.124;2023-09-19T07:43:45;97173.53;;;22.68;56.77
39411;BME280;26579;43.238;23.124;2023-09-19T07:46:10;97176.06;;;22.89;56.33
39411;BME280;26579;43.238;23.124;2023-09-19T07:48:36;97162.72;;;23.11;56.18
39411;BME280;26579;43.238;23.124;2023-09-19T07:51:03;97173.81;;;23.34;55.22
39411;BME280;26579;43.238;23.124;2023-09-19T07:53:29;97173.47;;;23.64;54.62
39411;BME280;26579;43.238;23.124;2023-09-19T07:56:15;97174.34;;;23.78;54.43
39411;BME280;26579;43.238;23.124;2023-09-19T07:58:41;97178.63;;;23.72;54.55
39411;BME280;26579;43.238;23.124;2023-09-19T08:01:08;97181.91;;;23.87;55.45
39411;BME280;26579;43.238;23.124;2023-09-19T08:03:34;97172.28;;;24.13;54.63
39411;BME280;26579;43.238;23.124;2023-09-19T08:06:00;97170.25;;;24.22;53.57
39411;BME280;26579;43.238;23.124;2023-09-19T08:08:27;97179.03;;;24.35;51.93
39411;BME280;26579;43.238;23.124;2023-09-19T08:10:56;97165.13;;;24.47;52.66
39411;BME280;26579;43.238;23.124;2023-09-19T08:13:23;97176.53;;;24.67;53.72
39411;BME280;26579;43.238;23.124;2023-09-19T08:15:49;97182.00;;;24.85;53.32
39411;BME280;26579;43.238;23.124;2023-09-19T08:18:15;97178.72;;;24.83;52.84
39411;BME280;26579;43.238;23.124;2023-09-19T08:20:41;97181.03;;;24.60;51.57
39411;BME280;26579;43.238;23.124;2023-09-19T08:23:07;97170.00;;;24.36;50.84
39411;BME280;26579;43.238;23.124;2023-09-19T08:25:32;97175.56;;;24.15;51.34
39411;BME280;26579;43.238;23.124;2023-09-19T08:27:58;97170.25;;;24.02;50.57
39411;BME280;26579;43.238;23.124;2023-09-19T08:30:24;97184.78;;;23.92;51.38
39411;BME280;26579;43.238;23.124;2023-09-19T08:32:50;97173.06;;;23.67;51.64
39411;BME280;26579;43.238;23.124;2023-09-19T08:35:16;97173.47;;;23.57;52.99
39411;BME280;26579;43.238;23.124;2023-09-19T08:37:42;97172.03;;;23.48;53.92
39411;BME280;26579;43.238;23.124;2023-09-19T08:40:08;97192.25;;;23.42;54.11
39411;BME280;26579;43.238;23.124;2023-09-19T08:42:51;97178.09;;;23.28;54.52
39411;BME280;26579;43.238;23.124;2023-09-19T08:45:17;97180.50;;;23.17;55.53
39411;BME280;26579;43.238;23.124;2023-09-19T08:48:00;97187.47;;;23.18;55.51
39411;BME280;26579;43.238;23.124;2023-09-19T08:50:29;97186.22;;;23.07;55.21
39411;BME280;26579;43.238;23.124;2023-09-19T08:52:56;97176.97;;;22.96;55.12
39411;BME280;26579;43.238;23.124;2023-09-19T08:55:29;97175.72;;;22.92;55.37
39411;BME280;26579;43.238;23.124;2023-09-19T08:58:04;97151.91;;;22.71;56.79
39411;BME280;26579;43.238;23.124;2023-09-19T09:00:32;97172.59;;;22.82;56.94
39411;BME280;26579;43.238;23.124;2023-09-19T09:02:58;97173.63;;;22.81;57.17
39411;BME280;26579;43.238;23.124;2023-09-19T09:05:26;97182.19;;;22.83;56.96
39411;BME280;26579;43.238;23.124;2023-09-19T09:07:53;97173.56;;;22.74;57.31
39411;BME280;26579;43.238;23.124;2023-09-19T09:10:19;97169.69;;;22.77;57.79
39411;BME280;26579;43.238;23.124;2023-09-19T09:12:45;97164.16;;;22.72;57.57
39411;BME280;26579;43.238;23.124;2023-09-19T09:15:11;97172.00;;;22.87;58.17
39411;BME280;26579;43.238;23.124;2023-09-19T09:17:37;97175.91;;;22.91;57.16
39411;BME280;26579;43.238;23.124;2023-09-19T09:20:03;97177.72;;;22.90;57.81
39411;BME280;26579;43.238;23.124;2023-09-19T09:22:29;97180.78;;;22.87;57.57
39411;BME280;26579;43.238;23.124;2023-09-19T09:24:57;97176.88;;;22.83;58.85
39411;BME280;26579;43.238;23.124;2023-09-19T09:27:23;97178.53;;;22.84;60.30
39411;BME280;26579;43.238;23.124;2023-09-19T09:29:49;97174.41;;;22.75;59.84
39411;BME280;26579;43.238;23.124;2023-09-19T09:32:29;97165.56;;;22.68;60.77
39411;BME280;26579;43.238;23.124;2023-09-19T09:34:59;97172.59;;;22.82;61.27
39411;BME280;26579;43.238;23.124;2023-09-19T09:37:26;97174.06;;;22.91;59.56
39411;BME280;26579;43.238;23.124;2023-09-19T09:40:00;97174.75;;;23.07;59.66
39411;BME280;26579;43.238;23.124;2023-09-19T09:42:33;97163.97;;;23.15;58.03
39411;BME280;26579;43.238;23.124;2023-09-19T09:45:23;97170.31;;;23.27;57.15
39411;BME280;26579;43.238;23.124;2023-09-19T09:47:49;97152.97;;;23.38;57.92
39411;BME280;26579;43.238;23.124;2023-09-19T09:50:26;97168.16;;;23.64;58.09
39411;BME280;26579;43.238;23.124;2023-09-19T09:52:52;97173.09;;;23.73;57.95
39411;BME280;26579;43.238;23.124;2023-09-19T09:55:18;97181.91;;;23.74;55.80
39411;BME280;26579;43.238;23.124;2023-09-19T09:57:44;97168.00;;;23.72;54.82
39411;BME280;26579;43.238;23.124;2023-09-19T10:00:10;97168.63;;;23.94;54.93
39411;BME280;26579;43.238;23.124;2023-09-19T10:02:38;97168.59;;;24.40;53.55
39411;BME280;26579;43.238;23.124;2023-09-19T10:07:40;97167.56;;;25.06;51.22
39411;BME280;26579;43.238;23.124;2023-09-19T10:10:07;97174.06;;;25.24;48.99
39411;BME280;26579;43.238;23.124;2023-09-19T10:12:32;97170.50;;;25.43;49.82
39411;BME280;26579;43.238;23.124;2023-09-19T10:15:00;97178.25;;;25.83;47.24
39411;BME280;26579;43.238;23.124;2023-09-19T10:17:29;97170.63;;;25.87;46.03
39411;BME280;26579;43.238;23.124;2023-09-19T10:19:56;97179.13;;;25.70;46.39
39411;BME280;26579;43.238;23.124;2023-09-19T10:22:22;97181.97;;;25.44;45.23
39411;BME280;26579;43.238;23.124;2023-09-19T10:24:49;97171.03;;;25.20;46.88
39411;BME280;26579;43.238;23.124;2023-09-19T10:27:15;97175.13;;;25.10;48.10
39411;BME280;26579;43.238;23.124;2023-09-19T10:29:43;97178.25;;;25.00;48.35
39411;BME280;26579;43.238;23.124;2023-09-19T10:32:11;97168.28;;;24.82;49.44
39411;BME280;26579;43.238;23.124;2023-09-19T10:34:41;97176.88;;;24.84;50.55
39411;BME280;26579;43.238;23.124;2023-09-19T10:37:08;97168.72;;;24.79;50.81
39411;BME280;26579;43.238;23.124;2023-09-19T10:39:39;97169.31;;;24.88;51.23
39411;BME280;26579;43.238;23.124;2023-09-19T10:42:06;97158.19;;;24.97;51.70
39411;BME280;26579;43.238;23.124;2023-09-19T10:44:33;97146.31;;;25.00;51.43
39411;BME280;26579;43.238;23.124;2023-09-19T10:46:58;97156.06;;;25.13;52.25
39411;BME280;26579;43.238;23.124;2023-09-19T10:49:24;97162.00;;;25.21;51.96
39411;BME280;26579;43.238;23.124;2023-09-19T10:51:55;97151.81;;;25.05;50.13
39411;BME280;26579;43.238;23.124;2023-09-19T10:54:27;97155.69;;;25.09;49.96
39411;BME280;26579;43.238;23.124;2023-09-19T10:56:54;97146.25;;;25.20;49.45
39411;BME280;26579;43.238;23.124;2023-09-19T10:59:21;97136.72;;;25.30;48.80
39411;BME280;26579;43.238;23.124;2023-09-19T11:01:56;97141.00;;;25.38;49.50
39411;BME280;26579;43.238;23.124;2023-09-19T11:04:29;97141.22;;;25.37;49.46
39411;BME280;26579;43.238;23.124;2023-09-19T11:07:01;97138.47;;;25.50;49.56
39411;BME280;26579;43.238;23.124;2023-09-19T11:09:43;97136.53;;;25.89;49.57
39411;BME280;26579;43.238;23.124;2023-09-19T11:12:09;97132.16;;;26.01;48.54
39411;BME280;26579;43.238;23.124;2023-09-19T11:14:39;97124.59;;;25.98;49.03
39411;BME280;26579;43.238;23.124;2023-09-19T11:25:48;97116.56;;;25.73;49.57
39411;BME280;26579;43.238;23.124;2023-09-19T11:30:45;97112.59;;;26.07;49.34
39411;BME280;26579;43.238;23.124;2023-09-19T11:33:33;97105.47;;;26.01;48.04
39411;BME280;26579;43.238;23.124;2023-09-19T11:36:14;97112.97;;;25.86;48.27
39411;BME280;26579;43.238;23.124;2023-09-19T11:43:52;97101.03;;;25.38;48.90
39411;BME280;26579;43.238;23.124;2023-09-19T11:46:18;97092.56;;;25.16;49.41
39411;BME280;26579;43.238;23.124;2023-09-19T11:48:47;97094.41;;;25.16;49.57
39411;BME280;26579;43.238;23.124;2023-09-19T11:51:14;97107.94;;;25.14;50.01
39411;BME280;26579;43.238;23.124;2023-09-19T11:53:40;97104.47;;;25.07;50.18
39411;BME280;26579;43.238;23.124;2023-09-19T11:56:07;97105.13;;;24.96;49.50
39411;BME280;26579;43.238;23.124;2023-09-19T11:58:33;97092.91;;;24.88;49.99
39411;BME280;26579;43.238;23.124;2023-09-19T12:00:59;97101.31;;;24.85;50.47
39411;BME280;26579;43.238;23.124;2023-09-19T12:03:29;97098.03;;;24.83;49.98
39411;BME280;26579;43.238;23.124;2023-09-19T12:05:55;97075.97;;;24.69;51.02
39411;BME280;26579;43.238;23.124;2023-09-19T12:08:20;97094.38;;;24.77;50.62
39411;BME280;26579;43.238;23.124;2023-09-19T12:10:50;97088.03;;;24.78;50.41
39411;BME280;26579;43.238;23.124;2023-09-19T12:13:19;97095.16;;;24.84;50.08
39411;BME280;26579;43.238;23.124;2023-09-19T12:15:45;97096.38;;;24.89;49.76
39411;BME280;26579;43.238;23.124;2023-09-19T12:18:30;97093.50;;;24.90;50.05
39411;BME280;26579;43.238;23.124;2023-09-19T12:20:56;97083.53;;;24.79;50.02
39411;BME280;26579;43.238;23.124;2023-09-19T12:23:22;97096.97;;;24.91;49.82
39411;BME280;26579;43.238;23.124;2023-09-19T12:25:47;97092.75;;;24.76;49.24
39411;BME280;26579;43.238;23.124;2023-09-19T12:28:14;97098.03;;;24.83;49.67
39411;BME280;26579;43.238;23.124;2023-09-19T12:30:40;97098.03;;;24.83;49.87
39411;BME280;26579;43.238;23.124;2023-09-19T12:33:17;97099.34;;;24.67;49.59
39411;BME280;26579;43.238;23.124;2023-09-19T12:35:43;97071.16;;;24.53;49.81
39411;BME280;26579;43.238;23.124;2023-09-19T12:38:09;97090.72;;;24.72;50.20
39411;BME280;26579;43.238;23.124;2023-09-19T12:40:35;97087.00;;;24.79;50.71
39411;BME280;26579;43.238;23.124;2023-09-19T12:43:00;97090.84;;;24.90;49.66
39411;BME280;26579;43.238;23.124;2023-09-19T12:45:27;97097.97;;;24.96;49.64
39411;BME280;26579;43.238;23.124;2023-09-19T12:48:24;97096.75;;;24.99;48.87
39411;BME280;26579;43.238;23.124;2023-09-19T12:51:09;97082.94;;;25.08;49.54
39411;BME280;26579;43.238;23.124;2023-09-19T12:53:37;97094.56;;;25.21;48.59
39411;BME280;26579;43.238;23.124;2023-09-19T12:56:03;97082.84;;;25.28;48.25
39411;BME280;26579;43.238;23.124;2023-09-19T12:58:29;97089.44;;;25.51;47.87
39411;BME280;26579;43.238;23.124;2023-09-19T13:00:55;97077.09;;;25.57;47.64
39411;BME280;26579;43.238;23.124;2023-09-19T13:05:50;97069.06;;;25.63;47.07
39411;BME280;26579;43.238;23.124;2023-09-19T13:08:30;97070.03;;;25.44;47.65
39411;BME280;26579;43.238;23.124;2023-09-19T13:14:13;97073.63;;;25.31;48.56
39411;BME280;26579;43.238;23.124;2023-09-19T13:16:56;97070.53;;;25.34;49.11
39411;BME280;26579;43.238;23.124;2023-09-19T13:19:42;97066.00;;;25.35;49.62
39411;BME280;26579;43.238;23.124;2023-09-19T13:22:39;97075.16;;;25.45;49.83
39411;BME280;26579;43.238;23.124;2023-09-19T13:25:07;97081.72;;;25.43;48.80
39411;BME280;26579;43.238;23.124;2023-09-19T13:27:33;97073.94;;;25.41;48.97